sensor_id;sensor_type;location;lat;lon;timestamp;temperature;humidity
26326;DHT22;14032;52.510;7.342;2023-07-28T00:02:05;17.20;99.90
26326;DHT22;14032;52.510;7.342;2023-07-28T00:04:33;17.20;99.90
26326;DHT22;14032;52.510;7.342;2023-07-28T00:06:59;17.20;99.90
26326;DHT22;14032;52.510;7.342;2023-07-28T00:09:24;17.20;99.90
26326;DHT22;14032;52.510;7.342;2023-07-28T00:11:50;17.20;99.90
26326;DHT22;14032;52.510;7.342;2023-07-28T00:14:15;17.20;99.90
26326;DHT22;14032;52.510;7.342;2023-07-28T00:16:41;17.20;99.90
26326;DHT22;14032;52.510;7.342;2023-07-28T00:19:06;17.20;99.90
26326;DHT22;14032;52.510;7.342;2023-07-28T00:21:32;17.20;99.90
26326;DHT22;14032;52.510;7.342;2023-07-28T00:23:58;17.20;99.90
26326;DHT22;14032;52.510;7.342;2023-07-28T00:26:23;17.20;99.90
26326;DHT22;14032;52.510;7.342;2023-07-28T00:28:49;17.20;99.90
26326;DHT22;14032;52.510;7.342;2023-07-28T00:31:14;17.20;99.90
26326;DHT22;14032;52.510;7.342;2023-07-28T00:33:40;17.20;99.90
26326;DHT22;14032;52.510;7.342;2023-07-28T00:36:05;17.20;99.90
26326;DHT22;14032;52.510;7.342;2023-07-28T00:38:31;17.20;99.90
26326;DHT22;14032;52.510;7.342;2023-07-28T00:40:57;17.20;99.90
26326;DHT22;14032;52.510;7.342;2023-07-28T00:43:22;17.20;99.90
26326;DHT22;14032;52.510;7.342;2023-07-28T00:45:48;17.20;99.90
26326;DHT22;14032;52.510;7.342;2023-07-28T00:48:15;17.20;99.90
26326;DHT22;14032;52.510;7.342;2023-07-28T00:50:49;17.20;99.90
26326;DHT22;14032;52.510;7.342;2023-07-28T00:53:16;17.20;99.90
26326;DHT22;14032;52.510;7.342;2023-07-28T00:55:42;17.20;99.90
26326;DHT22;14032;52.510;7.342;2023-07-28T00:58:08;17.20;99.90
26326;DHT22;14032;52.510;7.342;2023-07-28T01:03:10;17.20;99.90
26326;DHT22;14032;52.510;7.342;2023-07-28T01:08:27;17.20;99.90
26326;DHT22;14032;52.510;7.342;2023-07-28T01:10:54;17.20;99.90
26326;DHT22;14032;52.510;7.342;2023-07-28T01:13:20;17.20;99.90
26326;DHT22;14032;52.510;7.342;2023-07-28T01:15:45;17.20;99.90
26326;DHT22;14032;52.510;7.342;2023-07-28T01:18:11;17.20;99.90
26326;DHT22;14032;52.510;7.342;2023-07-28T01:20:38;17.20;99.90
26326;DHT22;14032;52.510;7.342;2023-07-28T01:23:19;17.20;99.90
26326;DHT22;14032;52.510;7.342;2023-07-28T01:26:06;17.20;99.90
26326;DHT22;14032;52.510;7.342;2023-07-28T01:28:34;17.20;99.90
26326;DHT22;14032;52.510;7.342;2023-07-28T01:31:02;17.20;99.90
26326;DHT22;14032;52.510;7.342;2023-07-28T01:33:28;17.20;99.90
26326;DHT22;14032;52.510;7.342;2023-07-28T01:35:54;17.20;99.90
26326;DHT22;14032;52.510;7.342;2023-07-28T01:38:20;17.20;99.90
26326;DHT22;14032;52.510;7.342;2023-07-28T01:40:45;17.20;99.90
26326;DHT22;14032;52.510;7.342;2023-07-28T01:43:11;17.20;99.90
26326;DHT22;14032;52.510;7.342;2023-07-28T01:45:36;17.20;99.90
26326;DHT22;14032;52.510;7.342;2023-07-28T01:48:02;17.20;99.90
26326;DHT22;14032;52.510;7.342;2023-07-28T01:50:27;17.20;99.90
26326;DHT22;14032;52.510;7.342;2023-07-28T01:52:53;17.20;99.90
26326;DHT22;14032;52.510;7.342;2023-07-28T01:55:18;17.20;99.90
26326;DHT22;14032;52.510;7.342;2023-07-28T01:57:58;17.20;99.90
26326;DHT22;14032;52.510;7.342;2023-07-28T02:00:24;17.20;99.90
26326;DHT22;14032;52.510;7.342;2023-07-28T02:02:50;17.20;99.90
26326;DHT22;14032;52.510;7.342;2023-07-28T02:05:16;17.20;99.90
26326;DHT22;14032;52.510;7.342;2023-07-28T02:07:42;17.20;99.90
26326;DHT22;14032;52.510;7.342;2023-07-28T02:10:08;17.20;99.90
26326;DHT22;14032;52.510;7.342;2023-07-28T02:12:35;17.20;99.90
26326;DHT22;14032;52.510;7.342;2023-07-28T02:15:01;17.20;99.90
26326;DHT22;14032;52.510;7.342;2023-07-28T02:17:27;17.20;99.90
26326;DHT22;14032;52.510;7.342;2023-07-28T02:19:52;17.20;99.90
26326;DHT22;14032;52.510;7.342;2023-07-28T02:22:18;17.20;99.90
26326;DHT22;14032;52.510;7.342;2023-07-28T02:24:43;17.20;99.90
26326;DHT22;14032;52.510;7.342;2023-07-28T02:27:09;17.20;99.90
26326;DHT22;14032;52.510;7.342;2023-07-28T02:29:35;17.20;99.90
26326;DHT22;14032;52.510;7.342;2023-07-28T02:32:00;17.20;99.90
26326;DHT22;14032;52.510;7.342;2023-07-28T02:34:26;17.20;99.90
26326;DHT22;14032;52.510;7.342;2023-07-28T02:36:51;17.20;99.90
26326;DHT22;14032;52.510;7.342;2023-07-28T02:39:17;17.20;99.90
26326;DHT22;14032;52.510;7.342;2023-07-28T02:41:42;17.20;99.90
26326;DHT22;14032;52.510;7.342;2023-07-28T02:44:08;17.20;99.90
26326;DHT22;14032;52.510;7.342;2023-07-28T02:46:33;17.20;99.90
26326;DHT22;14032;52.510;7.342;2023-07-28T02:48:59;17.20;99.90
26326;DHT22;14032;52.510;7.342;2023-07-28T02:51:24;17.20;99.90
26326;DHT22;14032;52.510;7.342;2023-07-28T02:53:50;17.30;99.90
26326;DHT22;14032;52.510;7.342;2023-07-28T02:56:16;17.20;99.90
26326;DHT22;14032;52.510;7.342;2023-07-28T02:58:41;17.20;99.90
26326;DHT22;14032;52.510;7.342;2023-07-28T03:01:07;17.20;99.90
26326;DHT22;14032;52.510;7.342;2023-07-28T03:03:32;17.20;99.90
26326;DHT22;14032;52.510;7.342;2023-07-28T03:05:58;17.20;99.90
26326;DHT22;14032;52.510;7.342;2023-07-28T03:08:23;17.20;99.90
26326;DHT22;14032;52.510;7.342;2023-07-28T03:10:49;17.20;99.90
26326;DHT22;14032;52.510;7.342;2023-07-28T03:13:14;17.30;99.90
26326;DHT22;14032;52.510;7.342;2023-07-28T03:15:40;17.20;99.90
26326;DHT22;14032;52.510;7.342;2023-07-28T03:18:05;17.20;99.90
26326;DHT22;14032;52.510;7.342;2023-07-28T03:20:31;17.20;99.90
26326;DHT22;14032;52.510;7.342;2023-07-28T03:22:56;17.30;99.90
26326;DHT22;14032;52.510;7.342;2023-07-28T03:25:22;17.20;99.90
26326;DHT22;14032;52.510;7.342;2023-07-28T03:27:47;17.20;99.90
26326;DHT22;14032;52.510;7.342;2023-07-28T03:30:13;17.20;99.90
26326;DHT22;14032;52.510;7.342;2023-07-28T03:32:39;17.20;99.90
26326;DHT22;14032;52.510;7.342;2023-07-28T03:35:05;17.30;99.90
26326;DHT22;14032;52.510;7.342;2023-07-28T03:37:32;17.20;99.90
26326;DHT22;14032;52.510;7.342;2023-07-28T03:39:57;17.20;99.90
26326;DHT22;14032;52.510;7.342;2023-07-28T03:42:23;17.20;99.90
26326;DHT22;14032;52.510;7.342;2023-07-28T03:44:49;17.30;99.90
26326;DHT22;14032;52.510;7.342;2023-07-28T03:47:14;17.20;99.90
26326;DHT22;14032;52.510;7.342;2023-07-28T03:49:40;17.20;99.90
26326;DHT22;14032;52.510;7.342;2023-07-28T03:52:06;17.20;99.90
26326;DHT22;14032;52.510;7.342;2023-07-28T03:54:31;17.20;99.90
26326;DHT22;14032;52.510;7.342;2023-07-28T03:56:57;17.20;99.90
26326;DHT22;14032;52.510;7.342;2023-07-28T03:59:22;17.20;99.90
26326;DHT22;14032;52.510;7.342;2023-07-28T04:01:48;17.20;99.90
26326;DHT22;14032;52.510;7.342;2023-07-28T04:04:13;17.20;99.90
26326;DHT22;14032;52.510;7.342;2023-07-28T04:09:09;17.20;99.90
26326;DHT22;14032;52.510;7.342;2023-07-28T04:11:35;17.20;99.90
26326;DHT22;14032;52.510;7.342;2023-07-28T04:14:01;17.20;99.90
26326;DHT22;14032;52.510;7.342;2023-07-28T04:16:26;17.20;99.90
26326;DHT22;14032;52.510;7.342;2023-07-28T04:18:52;17.20;99.90
26326;DHT22;14032;52.510;7.342;2023-07-28T04:21:17;17.20;99.90
26326;DHT22;14032;52.510;7.342;2023-07-28T04:23:43;17.20;99.90
26326;DHT22;14032;52.510;7.342;2023-07-28T04:26:09;17.20;99.90
26326;DHT22;14032;52.510;7.342;2023-07-28T04:28:34;17.20;99.90
26326;DHT22;14032;52.510;7.342;2023-07-28T04:31:00;17.20;99.90
26326;DHT22;14032;52.510;7.342;2023-07-28T04:33:26;17.20;99.90
26326;DHT22;14032;52.510;7.342;2023-07-28T04:35:51;17.20;99.90
26326;DHT22;14032;52.510;7.342;2023-07-28T04:38:17;17.20;99.90
26326;DHT22;14032;52.510;7.342;2023-07-28T04:40:43;17.20;99.90
26326;DHT22;14032;52.510;7.342;2023-07-28T04:43:09;17.20;99.90
26326;DHT22;14032;52.510;7.342;2023-07-28T04:45:35;17.20;99.90
26326;DHT22;14032;52.510;7.342;2023-07-28T04:48:01;17.30;99.90
26326;DHT22;14032;52.510;7.342;2023-07-28T04:50:27;17.20;99.90
26326;DHT22;14032;52.510;7.342;2023-07-28T04:52:53;17.30;99.90
26326;DHT22;14032;52.510;7.342;2023-07-28T04:55:18;17.20;99.90
26326;DHT22;14032;52.510;7.342;2023-07-28T04:57:44;17.20;99.90
26326;DHT22;14032;52.510;7.342;2023-07-28T05:00:10;17.30;99.90
26326;DHT22;14032;52.510;7.342;2023-07-28T05:02:36;17.30;99.90
26326;DHT22;14032;52.510;7.342;2023-07-28T05:05:01;17.20;99.90
26326;DHT22;14032;52.510;7.342;2023-07-28T05:07:28;17.20;99.90
26326;DHT22;14032;52.510;7.342;2023-07-28T05:09:54;17.30;99.90
26326;DHT22;14032;52.510;7.342;2023-07-28T05:12:20;17.30;99.90
26326;DHT22;14032;52.510;7.342;2023-07-28T05:14:46;17.30;99.90
26326;DHT22;14032;52.510;7.342;2023-07-28T05:17:11;17.30;99.90
26326;DHT22;14032;52.510;7.342;2023-07-28T05:19:37;17.30;99.90
26326;DHT22;14032;52.510;7.342;2023-07-28T05:22:03;17.30;99.90
26326;DHT22;14032;52.510;7.342;2023-07-28T05:24:28;17.30;99.90
26326;DHT22;14032;52.510;7.342;2023-07-28T05:26:54;17.30;99.90
26326;DHT22;14032;52.510;7.342;2023-07-28T05:29:20;17.30;99.90
26326;DHT22;14032;52.510;7.342;2023-07-28T05:31:45;17.40;99.90
26326;DHT22;14032;52.510;7.342;2023-07-28T05:34:11;17.30;99.90
26326;DHT22;14032;52.510;7.342;2023-07-28T05:36:38;17.40;99.90
26326;DHT22;14032;52.510;7.342;2023-07-28T05:39:04;17.30;99.90
26326;DHT22;14032;52.510;7.342;2023-07-28T05:41:30;17.40;99.90
26326;DHT22;14032;52.510;7.342;2023-07-28T05:43:55;17.30;99.90
26326;DHT22;14032;52.510;7.342;2023-07-28T05:46:21;17.40;99.90
26326;DHT22;14032;52.510;7.342;2023-07-28T05:48:47;17.40;99.90
26326;DHT22;14032;52.510;7.342;2023-07-28T05:51:12;17.40;99.90
26326;DHT22;14032;52.510;7.342;2023-07-28T05:53:38;17.40;99.90
26326;DHT22;14032;52.510;7.342;2023-07-28T05:56:04;17.40;99.90
26326;DHT22;14032;52.510;7.342;2023-07-28T05:58:29;17.40;99.90
26326;DHT22;14032;52.510;7.342;2023-07-28T06:00:55;17.40;99.90
26326;DHT22;14032;52.510;7.342;2023-07-28T06:03:22;17.50;99.90
26326;DHT22;14032;52.510;7.342;2023-07-28T06:05:48;17.50;99.90
26326;DHT22;14032;52.510;7.342;2023-07-28T06:08:14;17.50;99.90
26326;DHT22;14032;52.510;7.342;2023-07-28T06:10:39;17.50;99.90
26326;DHT22;14032;52.510;7.342;2023-07-28T06:13:05;17.50;99.90
26326;DHT22;14032;52.510;7.342;2023-07-28T06:15:30;17.50;99.90
26326;DHT22;14032;52.510;7.342;2023-07-28T06:17:56;17.50;99.90
26326;DHT22;14032;52.510;7.342;2023-07-28T06:20:22;17.60;99.90
26326;DHT22;14032;52.510;7.342;2023-07-28T06:22:47;17.60;99.90
26326;DHT22;14032;52.510;7.342;2023-07-28T06:25:13;17.60;99.90
26326;DHT22;14032;52.510;7.342;2023-07-28T06:27:39;17.60;99.90
26326;DHT22;14032;52.510;7.342;2023-07-28T06:30:05;17.70;99.90
26326;DHT22;14032;52.510;7.342;2023-07-28T06:32:30;17.70;99.90
26326;DHT22;14032;52.510;7.342;2023-07-28T06:34:56;17.70;99.90
26326;DHT22;14032;52.510;7.342;2023-07-28T06:37:23;17.80;99.90
26326;DHT22;14032;52.510;7.342;2023-07-28T06:39:48;17.80;99.90
26326;DHT22;14032;52.510;7.342;2023-07-28T06:42:14;17.90;99.90
26326;DHT22;14032;52.510;7.342;2023-07-28T06:44:42;17.90;99.90
26326;DHT22;14032;52.510;7.342;2023-07-28T06:47:07;18.00;99.90
26326;DHT22;14032;52.510;7.342;2023-07-28T06:49:33;18.00;99.90
26326;DHT22;14032;52.510;7.342;2023-07-28T06:51:58;18.00;99.90
26326;DHT22;14032;52.510;7.342;2023-07-28T06:54:24;18.00;99.90
26326;DHT22;14032;52.510;7.342;2023-07-28T06:56:50;18.00;99.90
26326;DHT22;14032;52.510;7.342;2023-07-28T06:59:16;18.00;99.90
26326;DHT22;14032;52.510;7.342;2023-07-28T07:01:41;18.00;99.90
26326;DHT22;14032;52.510;7.342;2023-07-28T07:04:07;18.00;99.90
26326;DHT22;14032;52.510;7.342;2023-07-28T07:06:33;18.10;99.90
26326;DHT22;14032;52.510;7.342;2023-07-28T07:08:58;18.10;99.90
26326;DHT22;14032;52.510;7.342;2023-07-28T07:11:24;18.10;99.90
26326;DHT22;14032;52.510;7.342;2023-07-28T07:13:49;18.20;99.90
26326;DHT22;14032;52.510;7.342;2023-07-28T07:16:16;18.30;99.90
26326;DHT22;14032;52.510;7.342;2023-07-28T07:18:45;18.30;99.90
26326;DHT22;14032;52.510;7.342;2023-07-28T07:21:10;18.50;99.90
26326;DHT22;14032;52.510;7.342;2023-07-28T07:23:36;18.60;99.90
26326;DHT22;14032;52.510;7.342;2023-07-28T07:26:02;18.70;99.90
26326;DHT22;14032;52.510;7.342;2023-07-28T07:28:29;18.80;99.90
26326;DHT22;14032;52.510;7.342;2023-07-28T07:30:55;18.90;99.90
26326;DHT22;14032;52.510;7.342;2023-07-28T07:33:21;19.00;99.90
26326;DHT22;14032;52.510;7.342;2023-07-28T07:35:46;19.10;99.90
26326;DHT22;14032;52.510;7.342;2023-07-28T07:38:12;19.20;99.90
26326;DHT22;14032;52.510;7.342;2023-07-28T07:40:38;19.20;99.90
26326;DHT22;14032;52.510;7.342;2023-07-28T07:43:04;19.10;99.90
26326;DHT22;14032;52.510;7.342;2023-07-28T07:45:30;19.10;99.90
26326;DHT22;14032;52.510;7.342;2023-07-28T07:47:56;19.10;99.90
26326;DHT22;14032;52.510;7.342;2023-07-28T07:50:21;19.10;99.90
26326;DHT22;14032;52.510;7.342;2023-07-28T07:52:47;19.20;99.90
26326;DHT22;14032;52.510;7.342;2023-07-28T07:55:13;19.30;99.90
26326;DHT22;14032;52.510;7.342;2023-07-28T07:57:39;19.40;99.90
26326;DHT22;14032;52.510;7.342;2023-07-28T08:00:05;19.50;99.90
26326;DHT22;14032;52.510;7.342;2023-07-28T08:02:31;19.50;99.90
26326;DHT22;14032;52.510;7.342;2023-07-28T08:04:57;19.50;99.90
26326;DHT22;14032;52.510;7.342;2023-07-28T08:07:22;19.60;99.90
26326;DHT22;14032;52.510;7.342;2023-07-28T08:09:51;19.60;99.90
26326;DHT22;14032;52.510;7.342;2023-07-28T08:12:17;19.60;99.90
26326;DHT22;14032;52.510;7.342;2023-07-28T08:14:43;19.60;99.90
26326;DHT22;14032;52.510;7.342;2023-07-28T08:17:10;19.50;99.90
26326;DHT22;14032;52.510;7.342;2023-07-28T08:19:36;19.40;99.90
26326;DHT22;14032;52.510;7.342;2023-07-28T08:22:02;19.40;99.90
26326;DHT22;14032;52.510;7.342;2023-07-28T08:24:31;19.30;99.90
26326;DHT22;14032;52.510;7.342;2023-07-28T08:26:57;19.20;99.90
26326;DHT22;14032;52.510;7.342;2023-07-28T08:29:23;19.20;99.90
26326;DHT22;14032;52.510;7.342;2023-07-28T08:31:48;19.20;99.90
26326;DHT22;14032;52.510;7.342;2023-07-28T08:34:14;19.20;99.90
26326;DHT22;14032;52.510;7.342;2023-07-28T08:36:41;19.30;99.90
26326;DHT22;14032;52.510;7.342;2023-07-28T08:39:06;19.30;99.90
26326;DHT22;14032;52.510;7.342;2023-07-28T08:41:32;19.30;99.90
26326;DHT22;14032;52.510;7.342;2023-07-28T08:43:57;19.40;99.90
26326;DHT22;14032;52.510;7.342;2023-07-28T08:46:23;19.40;99.90
26326;DHT22;14032;52.510;7.342;2023-07-28T08:48:49;19.40;99.90
26326;DHT22;14032;52.510;7.342;2023-07-28T08:51:14;19.40;99.90
26326;DHT22;14032;52.510;7.342;2023-07-28T08:53:40;19.40;99.90
26326;DHT22;14032;52.510;7.342;2023-07-28T08:56:06;19.40;99.90
26326;DHT22;14032;52.510;7.342;2023-07-28T08:58:32;19.50;99.90
26326;DHT22;14032;52.510;7.342;2023-07-28T09:00:58;19.50;99.90
26326;DHT22;14032;52.510;7.342;2023-07-28T09:03:27;19.40;99.90
26326;DHT22;14032;52.510;7.342;2023-07-28T09:05:59;19.50;99.90
26326;DHT22;14032;52.510;7.342;2023-07-28T09:08:25;19.40;99.90
26326;DHT22;14032;52.510;7.342;2023-07-28T09:10:50;19.40;99.90
26326;DHT22;14032;52.510;7.342;2023-07-28T09:13:17;19.40;99.90
26326;DHT22;14032;52.510;7.342;2023-07-28T09:15:44;19.40;99.90
26326;DHT22;14032;52.510;7.342;2023-07-28T09:18:14;19.60;99.90
26326;DHT22;14032;52.510;7.342;2023-07-28T09:20:41;19.90;99.90
26326;DHT22;14032;52.510;7.342;2023-07-28T09:23:08;20.10;99.90
26326;DHT22;14032;52.510;7.342;2023-07-28T09:25:35;20.20;99.90
26326;DHT22;14032;52.510;7.342;2023-07-28T09:28:02;20.20;99.90
26326;DHT22;14032;52.510;7.342;2023-07-28T09:30:48;20.20;99.90
26326;DHT22;14032;52.510;7.342;2023-07-28T09:33:28;20.20;99.90
26326;DHT22;14032;52.510;7.342;2023-07-28T09:35:54;20.20;99.90
26326;DHT22;14032;52.510;7.342;2023-07-28T09:38:21;20.20;99.90
26326;DHT22;14032;52.510;7.342;2023-07-28T09:40:48;20.40;99.90
26326;DHT22;14032;52.510;7.342;2023-07-28T09:43:14;20.40;99.90
26326;DHT22;14032;52.510;7.342;2023-07-28T09:45:40;20.50;99.90
26326;DHT22;14032;52.510;7.342;2023-07-28T09:48:09;20.50;99.90
26326;DHT22;14032;52.510;7.342;2023-07-28T09:50:37;20.60;99.90
26326;DHT22;14032;52.510;7.342;2023-07-28T09:53:04;20.60;99.90
26326;DHT22;14032;52.510;7.342;2023-07-28T09:55:29;20.70;99.90
26326;DHT22;14032;52.510;7.342;2023-07-28T09:57:58;20.60;99.90
26326;DHT22;14032;52.510;7.342;2023-07-28T10:00:26;20.60;99.90
26326;DHT22;14032;52.510;7.342;2023-07-28T10:02:52;20.60;99.90
26326;DHT22;14032;52.510;7.342;2023-07-28T10:05:18;20.50;99.90
26326;DHT22;14032;52.510;7.342;2023-07-28T10:07:48;20.40;99.90
26326;DHT22;14032;52.510;7.342;2023-07-28T10:10:14;20.40;99.90
26326;DHT22;14032;52.510;7.342;2023-07-28T10:12:48;20.40;99.90
26326;DHT22;14032;52.510;7.342;2023-07-28T10:15:19;20.50;99.90
26326;DHT22;14032;52.510;7.342;2023-07-28T10:17:46;20.60;99.90
26326;DHT22;14032;52.510;7.342;2023-07-28T10:23:04;21.00;99.90
26326;DHT22;14032;52.510;7.342;2023-07-28T10:25:34;21.10;99.90
26326;DHT22;14032;52.510;7.342;2023-07-28T10:28:01;21.10;99.90
26326;DHT22;14032;52.510;7.342;2023-07-28T10:30:28;21.10;99.90
26326;DHT22;14032;52.510;7.342;2023-07-28T10:32:54;21.10;99.90
26326;DHT22;14032;52.510;7.342;2023-07-28T10:35:26;21.20;99.90
26326;DHT22;14032;52.510;7.342;2023-07-28T10:37:53;21.30;99.90
26326;DHT22;14032;52.510;7.342;2023-07-28T10:40:31;21.30;99.90
26326;DHT22;14032;52.510;7.342;2023-07-28T10:43:00;21.30;99.90
26326;DHT22;14032;52.510;7.342;2023-07-28T10:45:27;21.20;99.90
26326;DHT22;14032;52.510;7.342;2023-07-28T10:47:54;21.30;99.90
26326;DHT22;14032;52.510;7.342;2023-07-28T10:50:22;21.40;99.90
26326;DHT22;14032;52.510;7.342;2023-07-28T10:52:48;21.50;99.90
26326;DHT22;14032;52.510;7.342;2023-07-28T10:55:21;21.60;99.90
26326;DHT22;14032;52.510;7.342;2023-07-28T10:57:48;21.70;99.90
26326;DHT22;14032;52.510;7.342;2023-07-28T11:00:17;21.80;99.90
26326;DHT22;14032;52.510;7.342;2023-07-28T11:05:21;21.90;99.90
26326;DHT22;14032;52.510;7.342;2023-07-28T11:07:48;22.00;99.90
26326;DHT22;14032;52.510;7.342;2023-07-28T11:10:14;22.00;99.90
26326;DHT22;14032;52.510;7.342;2023-07-28T11:12:44;22.00;99.90
26326;DHT22;14032;52.510;7.342;2023-07-28T11:15:11;21.80;99.90
26326;DHT22;14032;52.510;7.342;2023-07-28T11:17:39;21.60;99.90
26326;DHT22;14032;52.510;7.342;2023-07-28T11:20:18;21.50;99.90
26326;DHT22;14032;52.510;7.342;2023-07-28T11:22:45;21.50;99.90
26326;DHT22;14032;52.510;7.342;2023-07-28T11:25:11;21.50;99.90
26326;DHT22;14032;52.510;7.342;2023-07-28T11:27:37;21.40;99.90
26326;DHT22;14032;52.510;7.342;2023-07-28T11:30:04;21.20;99.90
26326;DHT22;14032;52.510;7.342;2023-07-28T11:32:31;21.20;99.90
26326;DHT22;14032;52.510;7.342;2023-07-28T11:35:09;21.00;99.90
26326;DHT22;14032;52.510;7.342;2023-07-28T11:37:36;21.00;99.90
26326;DHT22;14032;52.510;7.342;2023-07-28T11:40:04;21.00;99.90
26326;DHT22;14032;52.510;7.342;2023-07-28T11:42:52;21.00;99.90
26326;DHT22;14032;52.510;7.342;2023-07-28T11:45:19;21.10;99.90
26326;DHT22;14032;52.510;7.342;2023-07-28T11:48:11;21.10;99.90
26326;DHT22;14032;52.510;7.342;2023-07-28T11:50:41;21.10;99.90
26326;DHT22;14032;52.510;7.342;2023-07-28T11:53:08;21.00;99.90
26326;DHT22;14032;52.510;7.342;2023-07-28T11:55:38;21.00;99.90
26326;DHT22;14032;52.510;7.342;2023-07-28T11:58:07;20.90;99.90
26326;DHT22;14032;52.510;7.342;2023-07-28T12:00:39;20.90;99.90
26326;DHT22;14032;52.510;7.342;2023-07-28T12:03:12;20.80;99.90
26326;DHT22;14032;52.510;7.342;2023-07-28T12:05:39;20.80;99.90
26326;DHT22;14032;52.510;7.342;2023-07-28T12:08:05;20.80;99.90
26326;DHT22;14032;52.510;7.342;2023-07-28T12:10:35;20.80;99.90
26326;DHT22;14032;52.510;7.342;2023-07-28T12:13:06;20.90;99.90
26326;DHT22;14032;52.510;7.342;2023-07-28T12:15:33;21.00;99.90
26326;DHT22;14032;52.510;7.342;2023-07-28T12:18:07;21.10;99.90
26326;DHT22;14032;52.510;7.342;2023-07-28T12:20:38;21.20;99.90
26326;DHT22;14032;52.510;7.342;2023-07-28T12:23:05;21.30;99.90
26326;DHT22;14032;52.510;7.342;2023-07-28T12:25:31;21.40;99.90
26326;DHT22;14032;52.510;7.342;2023-07-28T12:27:57;21.50;99.90
26326;DHT22;14032;52.510;7.342;2023-07-28T12:30:23;21.60;99.90
26326;DHT22;14032;52.510;7.342;2023-07-28T12:32:48;21.60;99.90
26326;DHT22;14032;52.510;7.342;2023-07-28T12:35:14;21.60;99.90
26326;DHT22;14032;52.510;7.342;2023-07-28T12:37:40;21.60;99.90
26326;DHT22;14032;52.510;7.342;2023-07-28T12:40:06;21.60;99.90
26326;DHT22;14032;52.510;7.342;2023-07-28T12:42:32;21.70;99.90
26326;DHT22;14032;52.510;7.342;2023-07-28T12:44:58;21.70;99.90
26326;DHT22;14032;52.510;7.342;2023-07-28T12:47:24;21.70;99.90
26326;DHT22;14032;52.510;7.342;2023-07-28T12:49:49;21.70;99.90
26326;DHT22;14032;52.510;7.342;2023-07-28T12:52:15;21.70;99.90
26326;DHT22;14032;52.510;7.342;2023-07-28T12:54:41;21.70;99.90
26326;DHT22;14032;52.510;7.342;2023-07-28T12:57:08;21.70;99.90
26326;DHT22;14032;52.510;7.342;2023-07-28T12:59:36;21.80;99.90
26326;DHT22;14032;52.510;7.342;2023-07-28T13:02:01;21.80;99.90
26326;DHT22;14032;52.510;7.342;2023-07-28T13:04:27;21.80;99.90
26326;DHT22;14032;52.510;7.342;2023-07-28T13:06:52;21.80;99.90
26326;DHT22;14032;52.510;7.342;2023-07-28T13:09:18;21.80;99.90
26326;DHT22;14032;52.510;7.342;2023-07-28T13:11:44;21.80;99.90
26326;DHT22;14032;52.510;7.342;2023-07-28T13:14:09;21.70;99.90
26326;DHT22;14032;52.510;7.342;2023-07-28T13:16:36;21.70;99.90
26326;DHT22;14032;52.510;7.342;2023-07-28T13:19:04;21.60;99.90
26326;DHT22;14032;52.510;7.342;2023-07-28T13:21:29;21.50;99.90
26326;DHT22;14032;52.510;7.342;2023-07-28T13:23:55;21.50;99.90
26326;DHT22;14032;52.510;7.342;2023-07-28T13:26:20;21.40;99.90
26326;DHT22;14032;52.510;7.342;2023-07-28T13:28:46;21.40;99.90
26326;DHT22;14032;52.510;7.342;2023-07-28T13:31:18;21.40;99.90
26326;DHT22;14032;52.510;7.342;2023-07-28T13:33:44;21.40;99.90
26326;DHT22;14032;52.510;7.342;2023-07-28T13:36:11;21.30;99.90
26326;DHT22;14032;52.510;7.342;2023-07-28T13:38:37;21.30;99.90
26326;DHT22;14032;52.510;7.342;2023-07-28T13:41:06;21.20;99.90
26326;DHT22;14032;52.510;7.342;2023-07-28T13:43:32;21.20;99.90
26326;DHT22;14032;52.510;7.342;2023-07-28T13:45:58;21.10;99.90
26326;DHT22;14032;52.510;7.342;2023-07-28T13:48:24;21.10;99.90
26326;DHT22;14032;52.510;7.342;2023-07-28T13:50:49;21.10;99.90
26326;DHT22;14032;52.510;7.342;2023-07-28T13:53:15;21.00;99.90
26326;DHT22;14032;52.510;7.342;2023-07-28T13:55:40;20.90;99.90
26326;DHT22;14032;52.510;7.342;2023-07-28T13:58:06;20.90;99.90
26326;DHT22;14032;52.510;7.342;2023-07-28T14:00:32;20.90;99.90
26326;DHT22;14032;52.510;7.342;2023-07-28T14:02:58;20.90;99.90
26326;DHT22;14032;52.510;7.342;2023-07-28T14:05:23;20.90;99.90
26326;DHT22;14032;52.510;7.342;2023-07-28T14:07:49;20.80;99.90
26326;DHT22;14032;52.510;7.342;2023-07-28T14:10:14;20.80;99.90
26326;DHT22;14032;52.510;7.342;2023-07-28T14:12:40;20.80;99.90
26326;DHT22;14032;52.510;7.342;2023-07-28T14:15:07;20.80;99.90
26326;DHT22;14032;52.510;7.342;2023-07-28T14:17:33;20.80;99.90
26326;DHT22;14032;52.510;7.342;2023-07-28T14:19:59;20.80;99.90
26326;DHT22;14032;52.510;7.342;2023-07-28T14:22:24;20.70;99.90
26326;DHT22;14032;52.510;7.342;2023-07-28T14:24:50;20.90;99.90
26326;DHT22;14032;52.510;7.342;2023-07-28T14:27:17;20.90;99.90
26326;DHT22;14032;52.510;7.342;2023-07-28T14:29:42;20.90;99.90
26326;DHT22;14032;52.510;7.342;2023-07-28T14:32:08;21.10;99.90
26326;DHT22;14032;52.510;7.342;2023-07-28T14:34:34;21.10;99.90
26326;DHT22;14032;52.510;7.342;2023-07-28T14:37:06;21.20;99.90
26326;DHT22;14032;52.510;7.342;2023-07-28T14:39:31;21.20;99.90
26326;DHT22;14032;52.510;7.342;2023-07-28T14:41:57;21.30;99.90
26326;DHT22;14032;52.510;7.342;2023-07-28T14:44:23;21.30;99.90
26326;DHT22;14032;52.510;7.342;2023-07-28T14:46:48;21.40;99.90
26326;DHT22;14032;52.510;7.342;2023-07-28T14:49:14;21.40;99.90
26326;DHT22;14032;52.510;7.342;2023-07-28T14:51:39;21.50;99.90
26326;DHT22;14032;52.510;7.342;2023-07-28T14:54:05;21.60;99.90
26326;DHT22;14032;52.510;7.342;2023-07-28T14:56:31;21.60;99.90
26326;DHT22;14032;52.510;7.342;2023-07-28T14:58:58;21.70;99.90
26326;DHT22;14032;52.510;7.342;2023-07-28T15:01:26;21.70;99.90
26326;DHT22;14032;52.510;7.342;2023-07-28T15:03:52;21.70;99.90
26326;DHT22;14032;52.510;7.342;2023-07-28T15:06:17;21.80;99.90
26326;DHT22;14032;52.510;7.342;2023-07-28T15:08:43;21.70;99.90
26326;DHT22;14032;52.510;7.342;2023-07-28T15:11:09;21.80;99.90
26326;DHT22;14032;52.510;7.342;2023-07-28T15:13:34;21.80;99.90
26326;DHT22;14032;52.510;7.342;2023-07-28T15:16:00;21.80;99.90
26326;DHT22;14032;52.510;7.342;2023-07-28T15:18:26;21.80;99.90
26326;DHT22;14032;52.510;7.342;2023-07-28T15:20:51;21.90;99.90
26326;DHT22;14032;52.510;7.342;2023-07-28T15:23:21;22.00;99.90
26326;DHT22;14032;52.510;7.342;2023-07-28T15:25:47;22.10;99.90
26326;DHT22;14032;52.510;7.342;2023-07-28T15:28:13;22.10;99.90
26326;DHT22;14032;52.510;7.342;2023-07-28T15:30:39;22.20;99.90
26326;DHT22;14032;52.510;7.342;2023-07-28T15:33:05;22.20;99.90
26326;DHT22;14032;52.510;7.342;2023-07-28T15:35:31;22.30;99.90
26326;DHT22;14032;52.510;7.342;2023-07-28T15:37:57;22.20;99.90
26326;DHT22;14032;52.510;7.342;2023-07-28T15:40:22;22.20;99.90